sensor_id;sensor_type;location;lat;lon;timestamp;temperature;humidity
68215;DHT22;55036;52.138;5.236;2024-03-08T00:00:43;4.80;89.10
68215;DHT22;55036;52.138;5.236;2024-03-08T00:03:10;4.80;88.60
68215;DHT22;55036;52.138;5.236;2024-03-08T00:05:37;4.80;88.70
68215;DHT22;55036;52.138;5.236;2024-03-08T00:08:05;4.80;88.20
68215;DHT22;55036;52.138;5.236;2024-03-08T00:10:36;4.70;88.20
68215;DHT22;55036;52.138;5.236;2024-03-08T00:13:03;4.60;88.90
68215;DHT22;55036;52.138;5.236;2024-03-08T00:15:30;4.60;88.90
68215;DHT22;55036;52.138;5.236;2024-03-08T00:17:59;4.70;88.60
68215;DHT22;55036;52.138;5.236;2024-03-08T00:20:25;4.70;88.50
68215;DHT22;55036;52.138;5.236;2024-03-08T00:22:52;4.70;88.30
68215;DHT22;55036;52.138;5.236;2024-03-08T00:25:19;4.70;88.20
68215;DHT22;55036;52.138;5.236;2024-03-08T00:27:46;4.80;88.00
68215;DHT22;55036;52.138;5.236;2024-03-08T00:30:16;4.80;87.80
68215;DHT22;55036;52.138;5.236;2024-03-08T00:32:43;4.70;87.80
68215;DHT22;55036;52.138;5.236;2024-03-08T00:35:10;4.60;88.20
68215;DHT22;55036;52.138;5.236;2024-03-08T00:37:38;4.60;87.60
68215;DHT22;55036;52.138;5.236;2024-03-08T00:40:05;4.60;87.60
68215;DHT22;55036;52.138;5.236;2024-03-08T00:42:33;4.60;87.50
68215;DHT22;55036;52.138;5.236;2024-03-08T00:45:01;4.60;87.10
68215;DHT22;55036;52.138;5.236;2024-03-08T00:47:28;4.60;87.30
68215;DHT22;55036;52.138;5.236;2024-03-08T00:49:55;4.50;87.60
68215;DHT22;55036;52.138;5.236;2024-03-08T00:52:23;4.50;87.40
68215;DHT22;55036;52.138;5.236;2024-03-08T00:54:53;4.40;87.80
68215;DHT22;55036;52.138;5.236;2024-03-08T00:57:19;4.40;87.80
68215;DHT22;55036;52.138;5.236;2024-03-08T00:59:47;4.50;87.60
68215;DHT22;55036;52.138;5.236;2024-03-08T01:02:14;4.50;87.60
68215;DHT22;55036;52.138;5.236;2024-03-08T01:04:43;4.40;87.40
68215;DHT22;55036;52.138;5.236;2024-03-08T01:07:10;4.40;87.80
68215;DHT22;55036;52.138;5.236;2024-03-08T01:09:37;4.40;87.70
68215;DHT22;55036;52.138;5.236;2024-03-08T01:12:04;4.30;87.50
68215;DHT22;55036;52.138;5.236;2024-03-08T01:14:31;4.30;87.60
68215;DHT22;55036;52.138;5.236;2024-03-08T01:16:58;4.30;87.40
68215;DHT22;55036;52.138;5.236;2024-03-08T01:19:25;4.30;87.20
68215;DHT22;55036;52.138;5.236;2024-03-08T01:21:52;4.30;87.40
68215;DHT22;55036;52.138;5.236;2024-03-08T01:24:19;4.20;87.40
68215;DHT22;55036;52.138;5.236;2024-03-08T01:26:46;4.30;87.40
68215;DHT22;55036;52.138;5.236;2024-03-08T01:29:14;4.40;86.80
68215;DHT22;55036;52.138;5.236;2024-03-08T01:31:40;4.30;86.80
68215;DHT22;55036;52.138;5.236;2024-03-08T01:34:07;4.20;87.30
68215;DHT22;55036;52.138;5.236;2024-03-08T01:36:34;4.20;87.40
68215;DHT22;55036;52.138;5.236;2024-03-08T01:39:03;4.20;87.20
68215;DHT22;55036;52.138;5.236;2024-03-08T01:41:34;4.30;86.50
68215;DHT22;55036;52.138;5.236;2024-03-08T01:44:02;4.20;86.90
68215;DHT22;55036;52.138;5.236;2024-03-08T01:46:30;4.20;87.20
68215;DHT22;55036;52.138;5.236;2024-03-08T01:48:57;4.20;86.40
68215;DHT22;55036;52.138;5.236;2024-03-08T01:51:25;4.10;86.70
68215;DHT22;55036;52.138;5.236;2024-03-08T01:53:51;4.10;87.20
68215;DHT22;55036;52.138;5.236;2024-03-08T01:56:18;4.10;86.70
68215;DHT22;55036;52.138;5.236;2024-03-08T01:58:45;4.10;87.10
68215;DHT22;55036;52.138;5.236;2024-03-08T02:01:14;4.10;86.50
68215;DHT22;55036;52.138;5.236;2024-03-08T02:03:42;4.00;86.60
68215;DHT22;55036;52.138;5.236;2024-03-08T02:06:13;4.00;86.90
68215;DHT22;55036;52.138;5.236;2024-03-08T02:08:42;4.00;86.80
68215;DHT22;55036;52.138;5.236;2024-03-08T02:11:11;4.00;86.40
68215;DHT22;55036;52.138;5.236;2024-03-08T02:13:38;3.90;86.60
68215;DHT22;55036;52.138;5.236;2024-03-08T02:16:05;3.90;87.00
68215;DHT22;55036;52.138;5.236;2024-03-08T02:18:34;3.80;87.00
68215;DHT22;55036;52.138;5.236;2024-03-08T02:21:03;3.90;86.70
68215;DHT22;55036;52.138;5.236;2024-03-08T02:23:30;3.90;86.60
68215;DHT22;55036;52.138;5.236;2024-03-08T02:25:58;3.90;86.90
68215;DHT22;55036;52.138;5.236;2024-03-08T02:28:25;3.80;86.60
68215;DHT22;55036;52.138;5.236;2024-03-08T02:30:52;3.70;86.90
68215;DHT22;55036;52.138;5.236;2024-03-08T02:33:26;3.50;87.60
68215;DHT22;55036;52.138;5.236;2024-03-08T02:35:54;3.50;87.60
68215;DHT22;55036;52.138;5.236;2024-03-08T02:38:22;3.70;87.00
68215;DHT22;55036;52.138;5.236;2024-03-08T02:40:53;3.70;86.80
68215;DHT22;55036;52.138;5.236;2024-03-08T02:43:21;3.60;87.00
68215;DHT22;55036;52.138;5.236;2024-03-08T02:45:52;3.60;87.00
68215;DHT22;55036;52.138;5.236;2024-03-08T02:48:21;3.60;86.60
68215;DHT22;55036;52.138;5.236;2024-03-08T02:50:48;3.50;87.00
68215;DHT22;55036;52.138;5.236;2024-03-08T02:53:15;3.40;87.40
68215;DHT22;55036;52.138;5.236;2024-03-08T02:55:42;3.40;87.10
68215;DHT22;55036;52.138;5.236;2024-03-08T02:58:09;3.40;87.30
68215;DHT22;55036;52.138;5.236;2024-03-08T03:00:37;3.40;87.00
68215;DHT22;55036;52.138;5.236;2024-03-08T03:03:05;3.30;87.30
68215;DHT22;55036;52.138;5.236;2024-03-08T03:05:33;3.30;87.30
68215;DHT22;55036;52.138;5.236;2024-03-08T03:08:00;3.30;87.10
68215;DHT22;55036;52.138;5.236;2024-03-08T03:10:27;3.40;86.60
68215;DHT22;55036;52.138;5.236;2024-03-08T03:12:54;3.30;86.80
68215;DHT22;55036;52.138;5.236;2024-03-08T03:15:20;3.20;87.40
68215;DHT22;55036;52.138;5.236;2024-03-08T03:17:48;3.20;87.40
68215;DHT22;55036;52.138;5.236;2024-03-08T03:20:18;3.30;86.60
68215;DHT22;55036;52.138;5.236;2024-03-08T03:22:53;3.20;86.80
68215;DHT22;55036;52.138;5.236;2024-03-08T03:25:20;3.20;86.90
68215;DHT22;55036;52.138;5.236;2024-03-08T03:27:52;3.20;86.50
68215;DHT22;55036;52.138;5.236;2024-03-08T03:30:23;3.20;87.30
68215;DHT22;55036;52.138;5.236;2024-03-08T03:32:53;3.10;86.90
68215;DHT22;55036;52.138;5.236;2024-03-08T03:35:21;3.10;87.10
68215;DHT22;55036;52.138;5.236;2024-03-08T03:37:49;3.10;87.10
68215;DHT22;55036;52.138;5.236;2024-03-08T03:40:36;3.20;86.60
68215;DHT22;55036;52.138;5.236;2024-03-08T03:43:03;3.10;86.60
68215;DHT22;55036;52.138;5.236;2024-03-08T03:45:30;3.10;87.10
68215;DHT22;55036;52.138;5.236;2024-03-08T03:48:06;3.10;86.70
68215;DHT22;55036;52.138;5.236;2024-03-08T03:50:36;2.90;87.40
68215;DHT22;55036;52.138;5.236;2024-03-08T03:53:04;3.00;88.10
68215;DHT22;55036;52.138;5.236;2024-03-08T03:55:31;3.00;87.10
68215;DHT22;55036;52.138;5.236;2024-03-08T03:57:58;3.00;87.10
68215;DHT22;55036;52.138;5.236;2024-03-08T04:00:26;3.00;86.80
68215;DHT22;55036;52.138;5.236;2024-03-08T04:02:53;3.00;87.00
68215;DHT22;55036;52.138;5.236;2024-03-08T04:05:22;3.00;87.10
68215;DHT22;55036;52.138;5.236;2024-03-08T04:07:48;3.00;86.70
68215;DHT22;55036;52.138;5.236;2024-03-08T04:10:15;3.10;86.30
68215;DHT22;55036;52.138;5.236;2024-03-08T04:12:42;3.10;86.10
68215;DHT22;55036;52.138;5.236;2024-03-08T04:15:09;3.00;85.90
68215;DHT22;55036;52.138;5.236;2024-03-08T04:17:38;3.00;86.50
68215;DHT22;55036;52.138;5.236;2024-03-08T04:20:05;3.10;85.90
68215;DHT22;55036;52.138;5.236;2024-03-08T04:22:37;3.10;85.80
68215;DHT22;55036;52.138;5.236;2024-03-08T04:25:04;3.00;86.20
68215;DHT22;55036;52.138;5.236;2024-03-08T04:27:33;3.10;85.60
68215;DHT22;55036;52.138;5.236;2024-03-08T04:30:01;3.00;87.30
68215;DHT22;55036;52.138;5.236;2024-03-08T04:32:28;3.10;85.40
68215;DHT22;55036;52.138;5.236;2024-03-08T04:34:56;2.90;86.20
68215;DHT22;55036;52.138;5.236;2024-03-08T04:37:23;2.90;86.20
68215;DHT22;55036;52.138;5.236;2024-03-08T04:39:51;2.90;85.90
68215;DHT22;55036;52.138;5.236;2024-03-08T04:42:18;2.80;86.10
68215;DHT22;55036;52.138;5.236;2024-03-08T04:44:45;2.80;86.50
68215;DHT22;55036;52.138;5.236;2024-03-08T04:47:12;2.90;87.10
68215;DHT22;55036;52.138;5.236;2024-03-08T04:49:39;3.00;86.00
68215;DHT22;55036;52.138;5.236;2024-03-08T04:52:06;3.00;85.20
68215;DHT22;55036;52.138;5.236;2024-03-08T04:54:33;2.90;85.50
68215;DHT22;55036;52.138;5.236;2024-03-08T04:57:01;2.90;85.80
68215;DHT22;55036;52.138;5.236;2024-03-08T04:59:30;2.90;86.10
68215;DHT22;55036;52.138;5.236;2024-03-08T05:01:57;2.90;86.00
68215;DHT22;55036;52.138;5.236;2024-03-08T05:04:24;2.90;85.10
68215;DHT22;55036;52.138;5.236;2024-03-08T05:06:50;2.90;85.30
68215;DHT22;55036;52.138;5.236;2024-03-08T05:09:17;2.90;85.40
68215;DHT22;55036;52.138;5.236;2024-03-08T05:11:46;3.00;84.70
68215;DHT22;55036;52.138;5.236;2024-03-08T05:14:16;3.00;84.70
68215;DHT22;55036;52.138;5.236;2024-03-08T05:16:44;2.90;85.20
68215;DHT22;55036;52.138;5.236;2024-03-08T05:19:19;2.90;85.20
68215;DHT22;55036;52.138;5.236;2024-03-08T05:21:48;2.90;85.40
68215;DHT22;55036;52.138;5.236;2024-03-08T05:24:15;2.80;85.40
68215;DHT22;55036;52.138;5.236;2024-03-08T05:26:43;2.70;85.60
68215;DHT22;55036;52.138;5.236;2024-03-08T05:29:10;2.70;85.60
68215;DHT22;55036;52.138;5.236;2024-03-08T05:31:51;2.80;85.20
68215;DHT22;55036;52.138;5.236;2024-03-08T05:34:21;2.70;85.30
68215;DHT22;55036;52.138;5.236;2024-03-08T05:36:49;2.70;85.50
68215;DHT22;55036;52.138;5.236;2024-03-08T05:39:20;2.80;85.70
68215;DHT22;55036;52.138;5.236;2024-03-08T05:41:47;2.70;85.60
68215;DHT22;55036;52.138;5.236;2024-03-08T05:44:14;2.80;86.40
68215;DHT22;55036;52.138;5.236;2024-03-08T05:46:44;2.90;84.80
68215;DHT22;55036;52.138;5.236;2024-03-08T05:49:11;2.90;85.00
68215;DHT22;55036;52.138;5.236;2024-03-08T05:51:39;2.80;84.60
68215;DHT22;55036;52.138;5.236;2024-03-08T05:54:10;2.90;85.20
68215;DHT22;55036;52.138;5.236;2024-03-08T05:56:39;2.90;84.70
68215;DHT22;55036;52.138;5.236;2024-03-08T05:59:10;2.80;84.50
68215;DHT22;55036;52.138;5.236;2024-03-08T06:01:37;2.90;84.80
68215;DHT22;55036;52.138;5.236;2024-03-08T06:04:04;2.90;84.80
68215;DHT22;55036;52.138;5.236;2024-03-08T06:06:31;2.90;84.30
68215;DHT22;55036;52.138;5.236;2024-03-08T06:08:58;2.80;84.60
68215;DHT22;55036;52.138;5.236;2024-03-08T06:11:26;2.80;84.40
68215;DHT22;55036;52.138;5.236;2024-03-08T06:13:57;2.80;85.30
68215;DHT22;55036;52.138;5.236;2024-03-08T06:16:27;2.70;84.40
68215;DHT22;55036;52.138;5.236;2024-03-08T06:18:56;2.70;84.60
68215;DHT22;55036;52.138;5.236;2024-03-08T06:21:24;2.80;85.00
68215;DHT22;55036;52.138;5.236;2024-03-08T06:23:54;2.80;84.60
68215;DHT22;55036;52.138;5.236;2024-03-08T06:26:21;2.70;85.00
68215;DHT22;55036;52.138;5.236;2024-03-08T06:28:48;2.80;84.50
68215;DHT22;55036;52.138;5.236;2024-03-08T06:31:15;2.90;83.80
68215;DHT22;55036;52.138;5.236;2024-03-08T06:33:42;2.90;85.30
68215;DHT22;55036;52.138;5.236;2024-03-08T06:36:09;2.90;85.30
68215;DHT22;55036;52.138;5.236;2024-03-08T06:38:38;2.90;84.10
68215;DHT22;55036;52.138;5.236;2024-03-08T06:41:09;2.90;83.80
68215;DHT22;55036;52.138;5.236;2024-03-08T06:43:45;2.90;83.90
68215;DHT22;55036;52.138;5.236;2024-03-08T06:46:15;2.90;83.80
68215;DHT22;55036;52.138;5.236;2024-03-08T06:48:41;2.90;84.10
68215;DHT22;55036;52.138;5.236;2024-03-08T06:51:08;2.80;84.20
68215;DHT22;55036;52.138;5.236;2024-03-08T06:53:37;2.90;83.80
68215;DHT22;55036;52.138;5.236;2024-03-08T06:56:05;2.90;84.10
68215;DHT22;55036;52.138;5.236;2024-03-08T06:58:33;2.90;84.20
68215;DHT22;55036;52.138;5.236;2024-03-08T07:01:00;3.00;83.60
68215;DHT22;55036;52.138;5.236;2024-03-08T07:03:30;3.00;83.00
68215;DHT22;55036;52.138;5.236;2024-03-08T07:05:58;3.00;83.40
68215;DHT22;55036;52.138;5.236;2024-03-08T07:08:25;3.00;83.40
68215;DHT22;55036;52.138;5.236;2024-03-08T07:10:54;3.10;83.70
68215;DHT22;55036;52.138;5.236;2024-03-08T07:13:21;3.20;83.20
68215;DHT22;55036;52.138;5.236;2024-03-08T07:15:48;3.30;82.70
68215;DHT22;55036;52.138;5.236;2024-03-08T07:18:14;3.20;82.90
68215;DHT22;55036;52.138;5.236;2024-03-08T07:20:42;3.30;82.80
68215;DHT22;55036;52.138;5.236;2024-03-08T07:23:10;3.30;82.20
68215;DHT22;55036;52.138;5.236;2024-03-08T07:25:37;3.30;82.30
68215;DHT22;55036;52.138;5.236;2024-03-08T07:28:05;3.30;82.30
68215;DHT22;55036;52.138;5.236;2024-03-08T07:30:35;3.30;82.20
68215;DHT22;55036;52.138;5.236;2024-03-08T07:33:11;3.40;82.70
68215;DHT22;55036;52.138;5.236;2024-03-08T07:35:41;3.50;82.20
68215;DHT22;55036;52.138;5.236;2024-03-08T07:38:09;3.60;81.00
68215;DHT22;55036;52.138;5.236;2024-03-08T07:40:37;3.50;81.60
68215;DHT22;55036;52.138;5.236;2024-03-08T07:43:11;3.40;81.70
68215;DHT22;55036;52.138;5.236;2024-03-08T07:45:38;3.50;82.10
68215;DHT22;55036;52.138;5.236;2024-03-08T07:48:06;3.60;82.30
68215;DHT22;55036;52.138;5.236;2024-03-08T07:50:40;3.60;80.60
68215;DHT22;55036;52.138;5.236;2024-03-08T07:53:07;3.70;81.20
68215;DHT22;55036;52.138;5.236;2024-03-08T07:55:35;3.70;80.80
68215;DHT22;55036;52.138;5.236;2024-03-08T07:58:03;3.80;81.20
68215;DHT22;55036;52.138;5.236;2024-03-08T08:00:30;4.00;80.30
68215;DHT22;55036;52.138;5.236;2024-03-08T08:02:58;4.00;80.20
68215;DHT22;55036;52.138;5.236;2024-03-08T08:05:25;4.10;81.10
68215;DHT22;55036;52.138;5.236;2024-03-08T08:07:53;4.40;79.70
68215;DHT22;55036;52.138;5.236;2024-03-08T08:10:20;4.50;78.40
68215;DHT22;55036;52.138;5.236;2024-03-08T08:12:52;4.40;78.20
68215;DHT22;55036;52.138;5.236;2024-03-08T08:15:19;4.30;79.00
68215;DHT22;55036;52.138;5.236;2024-03-08T08:17:46;4.40;80.30
68215;DHT22;55036;52.138;5.236;2024-03-08T08:20:14;4.70;79.40
68215;DHT22;55036;52.138;5.236;2024-03-08T08:22:42;4.80;76.70
68215;DHT22;55036;52.138;5.236;2024-03-08T08:25:12;4.70;77.70
68215;DHT22;55036;52.138;5.236;2024-03-08T08:27:40;4.60;77.50
68215;DHT22;55036;52.138;5.236;2024-03-08T08:30:07;4.70;77.30
68215;DHT22;55036;52.138;5.236;2024-03-08T08:32:35;4.80;77.90
68215;DHT22;55036;52.138;5.236;2024-03-08T08:35:11;5.00;77.50
68215;DHT22;55036;52.138;5.236;2024-03-08T08:37:39;5.20;76.90
68215;DHT22;55036;52.138;5.236;2024-03-08T08:40:06;5.40;77.60
68215;DHT22;55036;52.138;5.236;2024-03-08T08:42:37;5.40;75.20
68215;DHT22;55036;52.138;5.236;2024-03-08T08:45:07;5.40;76.90
68215;DHT22;55036;52.138;5.236;2024-03-08T08:47:44;5.70;75.70
68215;DHT22;55036;52.138;5.236;2024-03-08T08:50:12;5.80;76.30
68215;DHT22;55036;52.138;5.236;2024-03-08T08:52:39;6.10;75.60
68215;DHT22;55036;52.138;5.236;2024-03-08T08:55:07;6.00;73.20
68215;DHT22;55036;52.138;5.236;2024-03-08T08:57:34;6.00;75.30
68215;DHT22;55036;52.138;5.236;2024-03-08T09:00:02;6.30;75.00
68215;DHT22;55036;52.138;5.236;2024-03-08T09:02:33;6.50;75.50
68215;DHT22;55036;52.138;5.236;2024-03-08T09:05:01;6.60;72.50
68215;DHT22;55036;52.138;5.236;2024-03-08T09:07:28;6.60;72.10
68215;DHT22;55036;52.138;5.236;2024-03-08T09:09:55;6.60;71.90
68215;DHT22;55036;52.138;5.236;2024-03-08T09:12:25;6.50;70.80
68215;DHT22;55036;52.138;5.236;2024-03-08T09:14:52;6.50;71.90
68215;DHT22;55036;52.138;5.236;2024-03-08T09:17:18;6.60;71.40
68215;DHT22;55036;52.138;5.236;2024-03-08T09:19:47;6.70;71.30
68215;DHT22;55036;52.138;5.236;2024-03-08T09:22:14;6.80;73.40
68215;DHT22;55036;52.138;5.236;2024-03-08T09:24:41;7.20;70.90
68215;DHT22;55036;52.138;5.236;2024-03-08T09:27:09;7.40;71.30
68215;DHT22;55036;52.138;5.236;2024-03-08T09:29:36;7.60;71.40
68215;DHT22;55036;52.138;5.236;2024-03-08T09:32:03;7.60;70.00
68215;DHT22;55036;52.138;5.236;2024-03-08T09:34:31;7.70;69.80
68215;DHT22;55036;52.138;5.236;2024-03-08T09:37:04;7.90;69.70
68215;DHT22;55036;52.138;5.236;2024-03-08T09:39:30;7.90;69.30
68215;DHT22;55036;52.138;5.236;2024-03-08T09:41:59;7.90;70.50
68215;DHT22;55036;52.138;5.236;2024-03-08T09:44:26;8.00;68.70
68215;DHT22;55036;52.138;5.236;2024-03-08T09:46:55;8.20;67.00
68215;DHT22;55036;52.138;5.236;2024-03-08T09:49:22;8.10;69.20
68215;DHT22;55036;52.138;5.236;2024-03-08T09:51:50;8.40;68.50
68215;DHT22;55036;52.138;5.236;2024-03-08T09:54:20;8.60;68.30
68215;DHT22;55036;52.138;5.236;2024-03-08T09:56:51;8.80;66.90
68215;DHT22;55036;52.138;5.236;2024-03-08T09:59:18;8.80;67.50
68215;DHT22;55036;52.138;5.236;2024-03-08T10:01:54;8.90;65.30
68215;DHT22;55036;52.138;5.236;2024-03-08T10:04:25;8.50;65.60
68215;DHT22;55036;52.138;5.236;2024-03-08T10:06:55;8.70;65.40
68215;DHT22;55036;52.138;5.236;2024-03-08T10:09:23;8.60;67.20
68215;DHT22;55036;52.138;5.236;2024-03-08T10:11:56;8.40;65.90
68215;DHT22;55036;52.138;5.236;2024-03-08T10:14:25;8.40;65.90
68215;DHT22;55036;52.138;5.236;2024-03-08T10:16:53;8.50;66.40
68215;DHT22;55036;52.138;5.236;2024-03-08T10:19:20;8.60;66.80
68215;DHT22;55036;52.138;5.236;2024-03-08T10:21:52;8.90;66.00
68215;DHT22;55036;52.138;5.236;2024-03-08T10:24:23;9.10;65.50
68215;DHT22;55036;52.138;5.236;2024-03-08T10:27:00;9.20;65.20
68215;DHT22;55036;52.138;5.236;2024-03-08T10:29:33;9.30;65.60
68215;DHT22;55036;52.138;5.236;2024-03-08T10:32:01;9.30;63.90
68215;DHT22;55036;52.138;5.236;2024-03-08T10:34:28;9.30;63.90
68215;DHT22;55036;52.138;5.236;2024-03-08T10:37:03;9.40;65.60
68215;DHT22;55036;52.138;5.236;2024-03-08T10:39:35;9.60;65.40
68215;DHT22;55036;52.138;5.236;2024-03-08T10:42:05;9.80;65.30
68215;DHT22;55036;52.138;5.236;2024-03-08T10:44:49;9.90;62.50
68215;DHT22;55036;52.138;5.236;2024-03-08T10:47:25;9.80;63.80
68215;DHT22;55036;52.138;5.236;2024-03-08T10:50:11;9.80;64.00
68215;DHT22;55036;52.138;5.236;2024-03-08T10:52:43;9.90;63.80
68215;DHT22;55036;52.138;5.236;2024-03-08T10:55:12;10.10;64.20
68215;DHT22;55036;52.138;5.236;2024-03-08T10:57:40;10.30;62.70
68215;DHT22;55036;52.138;5.236;2024-03-08T11:00:08;10.30;62.90
68215;DHT22;55036;52.138;5.236;2024-03-08T11:02:38;10.30;60.70
68215;DHT22;55036;52.138;5.236;2024-03-08T11:05:04;10.10;62.40
68215;DHT22;55036;52.138;5.236;2024-03-08T11:07:42;10.30;61.50
68215;DHT22;55036;52.138;5.236;2024-03-08T11:10:19;10.30;60.40
68215;DHT22;55036;52.138;5.236;2024-03-08T11:12:46;10.20;60.50
68215;DHT22;55036;52.138;5.236;2024-03-08T11:15:14;10.20;60.30
68215;DHT22;55036;52.138;5.236;2024-03-08T11:17:47;10.20;59.70
68215;DHT22;55036;52.138;5.236;2024-03-08T11:20:19;10.20;61.90
68215;DHT22;55036;52.138;5.236;2024-03-08T11:22:52;10.30;60.30
68215;DHT22;55036;52.138;5.236;2024-03-08T11:25:39;10.30;59.40
68215;DHT22;55036;52.138;5.236;2024-03-08T11:28:18;10.40;60.20
68215;DHT22;55036;52.138;5.236;2024-03-08T11:33:34;10.30;61.40
68215;DHT22;55036;52.138;5.236;2024-03-08T11:36:19;10.60;60.20
68215;DHT22;55036;52.138;5.236;2024-03-08T11:38:49;10.70;59.90
68215;DHT22;55036;52.138;5.236;2024-03-08T11:41:20;10.60;58.90
68215;DHT22;55036;52.138;5.236;2024-03-08T11:43:48;10.80;58.40
68215;DHT22;55036;52.138;5.236;2024-03-08T11:46:16;10.80;59.20
68215;DHT22;55036;52.138;5.236;2024-03-08T11:48:46;10.80;58.80
68215;DHT22;55036;52.138;5.236;2024-03-08T11:51:15;10.80;57.90
68215;DHT22;55036;52.138;5.236;2024-03-08T11:53:45;10.80;58.40
68215;DHT22;55036;52.138;5.236;2024-03-08T11:56:14;10.80;57.60
68215;DHT22;55036;52.138;5.236;2024-03-08T11:58:42;10.90;58.10
68215;DHT22;55036;52.138;5.236;2024-03-08T12:01:10;10.90;58.30
68215;DHT22;55036;52.138;5.236;2024-03-08T12:03:42;11.10;57.20
68215;DHT22;55036;52.138;5.236;2024-03-08T12:06:10;11.10;56.00
68215;DHT22;55036;52.138;5.236;2024-03-08T12:08:37;11.10;58.10
68215;DHT22;55036;52.138;5.236;2024-03-08T12:11:04;11.20;57.50
68215;DHT22;55036;52.138;5.236;2024-03-08T12:13:33;11.20;57.40
68215;DHT22;55036;52.138;5.236;2024-03-08T12:16:02;11.40;55.80
68215;DHT22;55036;52.138;5.236;2024-03-08T12:18:39;11.40;55.50
68215;DHT22;55036;52.138;5.236;2024-03-08T12:21:12;11.50;56.10
68215;DHT22;55036;52.138;5.236;2024-03-08T12:23:46;11.50;53.50
68215;DHT22;55036;52.138;5.236;2024-03-08T12:26:24;11.60;54.30
68215;DHT22;55036;52.138;5.236;2024-03-08T12:28:52;11.60;52.30
68215;DHT22;55036;52.138;5.236;2024-03-08T12:31:21;11.60;51.30
68215;DHT22;55036;52.138;5.236;2024-03-08T12:33:51;11.60;52.70
68215;DHT22;55036;52.138;5.236;2024-03-08T12:36:23;11.60;52.20
68215;DHT22;55036;52.138;5.236;2024-03-08T12:38:50;11.60;53.40
68215;DHT22;55036;52.138;5.236;2024-03-08T12:41:20;11.60;53.10
68215;DHT22;55036;52.138;5.236;2024-03-08T12:43:48;11.70;52.90
68215;DHT22;55036;52.138;5.236;2024-03-08T12:46:19;11.60;52.10
68215;DHT22;55036;52.138;5.236;2024-03-08T12:48:47;11.50;52.20
68215;DHT22;55036;52.138;5.236;2024-03-08T12:51:18;11.60;52.80
68215;DHT22;55036;52.138;5.236;2024-03-08T12:53:45;11.50;53.40
68215;DHT22;55036;52.138;5.236;2024-03-08T12:56:29;11.70;54.00
68215;DHT22;55036;52.138;5.236;2024-03-08T12:58:57;11.70;53.90
68215;DHT22;55036;52.138;5.236;2024-03-08T13:01:24;11.60;53.50
68215;DHT22;55036;52.138;5.236;2024-03-08T13:03:50;11.80;53.60
68215;DHT22;55036;52.138;5.236;2024-03-08T13:06:17;11.90;53.40
68215;DHT22;55036;52.138;5.236;2024-03-08T13:08:44;12.00;52.50
68215;DHT22;55036;52.138;5.236;2024-03-08T13:11:11;12.00;52.40
68215;DHT22;55036;52.138;5.236;2024-03-08T13:13:38;12.00;51.10
68215;DHT22;55036;52.138;5.236;2024-03-08T13:16:07;11.70;51.60
68215;DHT22;55036;52.138;5.236;2024-03-08T13:18:37;11.70;52.30
68215;DHT22;55036;52.138;5.236;2024-03-08T13:21:04;11.60;52.00
68215;DHT22;55036;52.138;5.236;2024-03-08T13:23:35;11.50;51.70
68215;DHT22;55036;52.138;5.236;2024-03-08T13:26:09;11.50;51.90
68215;DHT22;55036;52.138;5.236;2024-03-08T13:28:51;11.60;52.00
68215;DHT22;55036;52.138;5.236;2024-03-08T13:31:21;11.50;51.50
68215;DHT22;55036;52.138;5.236;2024-03-08T13:33:48;11.50;52.10
68215;DHT22;55036;52.138;5.236;2024-03-08T13:36:15;11.50;51.90
68215;DHT22;55036;52.138;5.236;2024-03-08T13:38:44;11.70;52.30
68215;DHT22;55036;52.138;5.236;2024-03-08T13:41:11;11.70;52.30
68215;DHT22;55036;52.138;5.236;2024-03-08T13:43:41;11.70;51.40
68215;DHT22;55036;52.138;5.236;2024-03-08T13:46:08;11.80;52.30
68215;DHT22;55036;52.138;5.236;2024-03-08T13:48:36;11.90;52.00
68215;DHT22;55036;52.138;5.236;2024-03-08T13:51:08;11.80;51.90
68215;DHT22;55036;52.138;5.236;2024-03-08T13:53:37;11.90;52.00
68215;DHT22;55036;52.138;5.236;2024-03-08T13:56:04;12.00;52.50
68215;DHT22;55036;52.138;5.236;2024-03-08T13:58:32;12.00;50.50
68215;DHT22;55036;52.138;5.236;2024-03-08T14:00:59;11.70;51.80
68215;DHT22;55036;52.138;5.236;2024-03-08T14:03:27;11.80;51.70
68215;DHT22;55036;52.138;5.236;2024-03-08T14:05:54;11.90;51.00
68215;DHT22;55036;52.138;5.236;2024-03-08T14:08:22;11.70;51.10
68215;DHT22;55036;52.138;5.236;2024-03-08T14:10:49;11.60;51.90
68215;DHT22;55036;52.138;5.236;2024-03-08T14:13:17;11.70;51.80
68215;DHT22;55036;52.138;5.236;2024-03-08T14:15:45;11.50;52.20
68215;DHT22;55036;52.138;5.236;2024-03-08T14:18:13;11.50;52.50
68215;DHT22;55036;52.138;5.236;2024-03-08T14:20:40;11.40;51.60
68215;DHT22;55036;52.138;5.236;2024-03-08T14:23:08;11.30;52.10
68215;DHT22;55036;52.138;5.236;2024-03-08T14:25:37;11.30;52.50
68215;DHT22;55036;52.138;5.236;2024-03-08T14:28:04;11.40;53.00
68215;DHT22;55036;52.138;5.236;2024-03-08T14:30:34;11.50;52.80
68215;DHT22;55036;52.138;5.236;2024-03-08T14:33:03;11.60;52.90
68215;DHT22;55036;52.138;5.236;2024-03-08T14:35:31;11.70;53.00
68215;DHT22;55036;52.138;5.236;2024-03-08T14:37:58;11.70;52.30
68215;DHT22;55036;52.138;5.236;2024-03-08T14:40:25;11.50;52.30
68215;DHT22;55036;52.138;5.236;2024-03-08T14:42:53;11.40;52.20
68215;DHT22;55036;52.138;5.236;2024-03-08T14:45:20;11.40;52.80
68215;DHT22;55036;52.138;5.236;2024-03-08T14:47:50;11.40;53.00
68215;DHT22;55036;52.138;5.236;2024-03-08T14:50:18;11.30;53.10
68215;DHT22;55036;52.138;5.236;2024-03-08T14:52:45;11.40;53.30
68215;DHT22;55036;52.138;5.236;2024-03-08T14:55:16;11.60;53.10
68215;DHT22;55036;52.138;5.236;2024-03-08T14:57:43;11.40;53.00
68215;DHT22;55036;52.138;5.236;2024-03-08T15:00:13;11.40;53.50
68215;DHT22;55036;52.138;5.236;2024-03-08T15:02:44;11.50;53.40
68215;DHT22;55036;52.138;5.236;2024-03-08T15:05:11;11.40;53.10
68215;DHT22;55036;52.138;5.236;2024-03-08T15:07:38;11.30;53.70
68215;DHT22;55036;52.138;5.236;2024-03-08T15:10:09;11.20;54.00
68215;DHT22;55036;52.138;5.236;2024-03-08T15:12:45;11.20;54.30
68215;DHT22;55036;52.138;5.236;2024-03-08T15:15:18;11.30;54.60
68215;DHT22;55036;52.138;5.236;2024-03-08T15:17:45;11.30;54.30
68215;DHT22;55036;52.138;5.236;2024-03-08T15:20:13;11.30;54.60
68215;DHT22;55036;52.138;5.236;2024-03-08T15:22:47;11.30;54.00
68215;DHT22;55036;52.138;5.236;2024-03-08T15:25:14;11.30;54.10
68215;DHT22;55036;52.138;5.236;2024-03-08T15:27:47;11.20;55.50
68215;DHT22;55036;52.138;5.236;2024-03-08T15:30:15;11.20;55.00
68215;DHT22;55036;52.138;5.236;2024-03-08T15:32:46;11.20;54.80
68215;DHT22;55036;52.138;5.236;2024-03-08T15:35:27;11.30;54.60
68215;DHT22;55036;52.138;5.236;2024-03-08T15:37:54;11.20;55.00
68215;DHT22;55036;52.138;5.236;2024-03-08T15:40:24;11.30;54.60
68215;DHT22;55036;52.138;5.236;2024-03-08T15:45:18;11.20;54.60
68215;DHT22;55036;52.138;5.236;2024-03-08T15:47:44;11.10;54.60
68215;DHT22;55036;52.138;5.236;2024-03-08T15:50:12;11.20;54.50
68215;DHT22;55036;52.138;5.236;2024-03-08T15:52:38;11.10;54.80
68215;DHT22;55036;52.138;5.236;2024-03-08T15:55:09;10.90;55.50
68215;DHT22;55036;52.138;5.236;2024-03-08T15:57:35;10.80;55.90